createdAt,value
2023-04-16T00:02:06.329Z,8.76
2023-04-16T00:04:59.292Z,8.76
2023-04-16T00:07:51.666Z,8.75
2023-04-16T00:10:42.187Z,8.74
2023-04-16T00:13:32.593Z,8.71
2023-04-16T00:16:23.095Z,8.68
2023-04-16T00:19:13.572Z,8.69
2023-04-16T00:22:04.200Z,8.68
2023-04-16T00:24:54.651Z,8.65
2023-04-16T00:27:45.536Z,8.63
2023-04-16T00:30:36.247Z,8.61
2023-04-16T00:33:26.817Z,8.60
2023-04-16T00:36:17.289Z,8.56
2023-04-16T00:39:08.581Z,8.51
2023-04-16T00:41:59.783Z,8.48
2023-04-16T00:44:50.545Z,8.47
2023-04-16T00:47:41.057Z,8.44
2023-04-16T00:50:31.910Z,8.44
2023-04-16T00:53:22.627Z,8.45
2023-04-16T00:56:13.242Z,8.46
2023-04-16T00:59:04.044Z,8.46
2023-04-16T01:01:54.978Z,8.44
2023-04-16T01:04:45.683Z,8.40
2023-04-16T01:07:36.947Z,8.37
2023-04-16T01:10:27.672Z,8.38
2023-04-16T01:13:18.396Z,8.37
2023-04-16T01:16:09.292Z,8.37
2023-04-16T01:19:00.137Z,8.34
2023-04-16T01:21:50.632Z,8.33
2023-04-16T01:24:41.599Z,8.34
2023-04-16T01:27:33.944Z,8.36
2023-04-16T01:30:24.421Z,8.38
2023-04-16T01:33:25.019Z,8.40
2023-04-16T01:36:16.300Z,8.36
2023-04-16T01:39:07.286Z,8.34
2023-04-16T01:41:59.025Z,8.35
2023-04-16T01:44:51.028Z,8.34
2023-04-16T01:47:41.780Z,8.35
2023-04-16T01:50:33.005Z,8.36
2023-04-16T01:53:23.670Z,8.35
2023-04-16T01:56:14.113Z,8.30
2023-04-16T01:59:05.095Z,8.25
2023-04-16T02:02:00.091Z,8.22
2023-04-16T02:04:51.069Z,8.20
2023-04-16T02:07:41.746Z,8.16
2023-04-16T02:10:31.917Z,8.16
2023-04-16T02:13:23.438Z,8.15
2023-04-16T02:16:13.900Z,8.15
2023-04-16T02:19:10.494Z,8.13
2023-04-16T02:22:02.555Z,8.12
2023-04-16T02:24:53.426Z,8.13
2023-04-16T02:27:43.691Z,8.10
2023-04-16T02:30:46.783Z,8.08
2023-04-16T02:33:38.763Z,8.05
2023-04-16T02:36:28.994Z,8.04
2023-04-16T02:39:18.252Z,7.99
2023-04-16T02:42:07.552Z,7.93
2023-04-16T02:44:57.327Z,7.87
2023-04-16T02:47:46.362Z,7.82
2023-04-16T02:50:35.311Z,7.79
2023-04-16T02:53:24.264Z,7.78
2023-04-16T02:56:13.328Z,7.78
2023-04-16T02:59:02.385Z,7.81
2023-04-16T03:01:52.299Z,7.84
2023-04-16T03:04:41.268Z,7.88
2023-04-16T03:07:30.566Z,7.90
2023-04-16T03:10:19.801Z,7.91
2023-04-16T03:13:08.786Z,7.93
2023-04-16T03:15:58.122Z,7.94
2023-04-16T03:18:47.563Z,7.96
2023-04-16T03:21:36.221Z,8.00
2023-04-16T03:24:26.216Z,8.05
2023-04-16T03:27:15.551Z,8.08
2023-04-16T03:30:04.873Z,8.06
2023-04-16T03:32:55.156Z,8.00
2023-04-16T03:35:44.573Z,7.95
2023-04-16T03:38:33.511Z,7.94
2023-04-16T03:41:22.202Z,7.94
2023-04-16T03:44:11.321Z,7.94
2023-04-16T03:47:00.665Z,7.93
2023-04-16T03:49:50.126Z,7.91
2023-04-16T03:52:42.235Z,7.89
2023-04-16T03:55:31.110Z,7.89
2023-04-16T03:58:20.117Z,7.93
2023-04-16T04:01:09.533Z,7.96
2023-04-16T04:03:59.027Z,7.99
2023-04-16T04:06:48.053Z,8.03
2023-04-16T04:09:37.816Z,8.06
2023-04-16T04:12:27.279Z,8.08
2023-04-16T04:15:16.742Z,8.06
2023-04-16T04:18:05.745Z,8.09
2023-04-16T04:20:54.935Z,8.12
2023-04-16T04:23:46.530Z,8.14
2023-04-16T04:26:35.727Z,8.17
2023-04-16T04:29:25.350Z,8.16
2023-04-16T04:32:14.638Z,8.13
2023-04-16T04:35:03.597Z,8.09
2023-04-16T04:37:52.709Z,8.05
2023-04-16T04:40:42.208Z,8.06
2023-04-16T04:43:31.509Z,8.08
2023-04-16T04:46:20.489Z,8.15
2023-04-16T04:49:10.568Z,8.23
2023-04-16T04:52:01.402Z,8.31
2023-04-16T04:54:50.386Z,8.36
2023-04-16T04:57:40.272Z,8.41
2023-04-16T05:00:29.158Z,8.46
2023-04-16T05:03:20.299Z,8.51
2023-04-16T05:06:09.605Z,8.52
2023-04-16T05:08:58.890Z,8.49
2023-04-16T05:11:48.160Z,8.48
2023-04-16T05:14:37.518Z,8.45
2023-04-16T05:17:26.949Z,8.46
2023-04-16T05:20:16.102Z,8.45
2023-04-16T05:23:05.376Z,8.49
2023-04-16T05:25:54.605Z,8.51
2023-04-16T05:28:43.942Z,8.58
2023-04-16T05:31:32.621Z,8.68
2023-04-16T05:34:21.820Z,8.73
2023-04-16T05:37:11.144Z,8.76
2023-04-16T05:40:00.364Z,8.80
2023-04-16T05:42:49.560Z,8.91
2023-04-16T05:45:41.285Z,9.05
2023-04-16T05:48:31.337Z,9.13
2023-04-16T05:51:23.718Z,9.13
2023-04-16T05:54:12.825Z,9.16
2023-04-16T05:57:02.213Z,9.20
2023-04-16T05:59:51.725Z,9.22
2023-04-16T06:02:41.442Z,9.16
2023-04-16T06:05:33.547Z,9.13
2023-04-16T06:08:22.947Z,9.12
2023-04-16T06:11:11.990Z,9.12
2023-04-16T06:14:03.388Z,9.21
2023-04-16T06:16:52.674Z,9.26
2023-04-16T06:19:41.891Z,9.30
2023-04-16T06:22:31.052Z,9.35
2023-04-16T06:25:20.280Z,9.36
2023-04-16T06:28:09.234Z,9.34
2023-04-16T06:30:58.486Z,9.32
2023-04-16T06:33:47.671Z,9.36
2023-04-16T06:36:37.767Z,9.38
2023-04-16T06:39:26.754Z,9.42
2023-04-16T06:42:15.897Z,9.43
2023-04-16T06:45:05.278Z,9.48
2023-04-16T06:47:54.436Z,9.57
2023-04-16T06:50:43.901Z,9.65
2023-04-16T06:53:33.986Z,9.71
2023-04-16T06:56:23.050Z,9.69
2023-04-16T06:59:11.863Z,9.59
2023-04-16T07:02:01.374Z,9.62
2023-04-16T07:04:53.401Z,9.67
2023-04-16T07:07:42.621Z,9.68
2023-04-16T07:10:31.470Z,9.70
2023-04-16T07:13:20.546Z,9.71
2023-04-16T07:16:09.772Z,9.61
2023-04-16T07:18:58.678Z,9.56
2023-04-16T07:21:47.925Z,9.54
2023-04-16T07:24:37.184Z,9.57
2023-04-16T07:27:26.528Z,9.60
2023-04-16T07:30:15.882Z,9.60
2023-04-16T07:33:05.261Z,9.63
2023-04-16T07:35:54.536Z,9.65
2023-04-16T07:38:47.321Z,9.71
2023-04-16T07:41:36.716Z,9.79
2023-04-16T07:44:25.969Z,9.88
2023-04-16T07:47:15.510Z,9.94
2023-04-16T07:50:04.806Z,10.01
2023-04-16T07:52:53.753Z,10.04
2023-04-16T07:55:43.494Z,10.02
2023-04-16T07:58:32.674Z,10.02
2023-04-16T08:01:22.309Z,10.07
2023-04-16T08:04:11.454Z,10.09
2023-04-16T08:07:00.307Z,10.06
2023-04-16T08:09:50.429Z,10.11
2023-04-16T08:12:39.654Z,10.15
2023-04-16T08:15:31.288Z,10.12
2023-04-16T08:18:58.053Z,10.05
2023-04-16T08:22:11.731Z,10.04
2023-04-16T08:25:01.049Z,10.06
2023-04-16T08:27:50.552Z,10.07
2023-04-16T08:30:39.588Z,10.05
2023-04-16T08:33:28.958Z,10.03
2023-04-16T08:36:17.965Z,10.07
2023-04-16T08:39:07.390Z,10.08
2023-04-16T08:41:56.561Z,10.13
2023-04-16T08:44:49.099Z,10.17
2023-04-16T08:47:38.294Z,10.30
2023-04-16T08:50:28.428Z,10.55
2023-04-16T08:53:18.316Z,10.74
2023-04-16T08:56:07.680Z,10.78
2023-04-16T08:58:59.459Z,10.82
2023-04-16T09:01:49.213Z,10.88
2023-04-16T09:04:38.520Z,10.92
2023-04-16T09:07:27.556Z,10.97
2023-04-16T09:10:16.937Z,10.93
2023-04-16T09:13:06.115Z,10.96
2023-04-16T09:15:57.275Z,10.99
2023-04-16T09:18:47.950Z,11.06
2023-04-16T09:21:41.017Z,11.10
2023-04-16T09:24:31.770Z,11.11
2023-04-16T09:27:21.199Z,11.18
2023-04-16T09:30:23.244Z,11.33
2023-04-16T09:33:16.769Z,11.47
2023-04-16T09:36:06.393Z,11.49
2023-04-16T09:38:57.576Z,11.49
2023-04-16T09:41:48.055Z,11.47
2023-04-16T09:44:38.040Z,11.55
2023-04-16T09:47:39.501Z,11.70
2023-04-16T09:50:29.555Z,11.95
2023-04-16T09:53:21.955Z,12.27
2023-04-16T09:56:13.012Z,12.59
2023-04-16T09:59:02.159Z,12.89
2023-04-16T10:02:12.294Z,13.24
2023-04-16T10:05:09.078Z,13.41
2023-04-16T10:07:58.575Z,13.59
2023-04-16T10:10:49.891Z,13.79
2023-04-16T10:13:39.035Z,13.97
2023-04-16T10:16:27.999Z,14.20
2023-04-16T10:19:17.117Z,14.39
2023-04-16T10:22:06.642Z,14.64
2023-04-16T10:24:55.526Z,15.10
2023-04-16T10:27:44.669Z,15.71
2023-04-16T10:30:33.965Z,16.16
2023-04-16T10:33:23.727Z,16.62
2023-04-16T10:36:13.694Z,17.07
2023-04-16T10:39:02.695Z,17.44
2023-04-16T10:41:52.038Z,17.72
2023-04-16T10:44:45.018Z,17.32
2023-04-16T10:47:34.795Z,17.19
2023-04-16T10:50:23.739Z,17.48
2023-04-16T10:53:24.109Z,17.85
2023-04-16T10:56:13.947Z,18.19
2023-04-16T10:59:03.949Z,18.34
2023-04-16T11:01:54.891Z,18.36
2023-04-16T11:04:45.335Z,18.32
2023-04-16T11:07:35.964Z,18.19
2023-04-16T11:10:24.928Z,18.15
2023-04-16T11:13:14.731Z,18.37
2023-04-16T11:16:04.179Z,18.62
2023-04-16T11:18:54.551Z,18.80
2023-04-16T11:21:46.298Z,18.80
2023-04-16T11:24:36.258Z,18.90
2023-04-16T11:27:25.570Z,18.96
2023-04-16T11:30:14.548Z,18.93
2023-04-16T11:33:04.654Z,18.93
2023-04-16T11:35:59.162Z,18.65
2023-04-16T11:38:48.438Z,18.39
2023-04-16T11:41:37.608Z,18.25
2023-04-16T11:44:27.550Z,18.22
2023-04-16T11:47:16.668Z,18.35
2023-04-16T11:50:18.206Z,18.56
2023-04-16T11:53:07.399Z,18.62
2023-04-16T11:55:57.380Z,18.40
2023-04-16T11:58:47.125Z,18.25
2023-04-16T12:01:36.885Z,18.24
2023-04-16T12:04:26.313Z,18.28
2023-04-16T12:07:16.437Z,18.29
2023-04-16T12:10:09.095Z,18.25
2023-04-16T12:12:58.326Z,18.38
2023-04-16T12:15:48.174Z,18.43
2023-04-16T12:18:37.391Z,18.57
2023-04-16T12:21:26.644Z,18.36
2023-04-16T12:24:16.357Z,17.90
2023-04-16T12:27:06.871Z,17.59
2023-04-16T12:30:05.458Z,17.62
2023-04-16T12:32:56.119Z,17.60
2023-04-16T12:35:46.958Z,17.53
2023-04-16T12:38:35.907Z,17.59
2023-04-16T12:41:24.972Z,17.66
2023-04-16T12:44:17.960Z,17.62
2023-04-16T12:47:07.058Z,17.52
2023-04-16T12:49:56.279Z,17.49
2023-04-16T12:52:45.655Z,17.43
2023-04-16T12:55:34.550Z,17.31
2023-04-16T12:58:23.786Z,17.17
2023-04-16T13:02:01.256Z,17.05
2023-04-16T13:04:50.322Z,16.99
2023-04-16T13:07:39.496Z,17.02
2023-04-16T13:10:30.293Z,16.99
2023-04-16T13:13:19.489Z,17.01
2023-04-16T13:16:08.898Z,17.03
2023-04-16T13:18:58.000Z,17.11
2023-04-16T13:21:47.334Z,17.15
2023-04-16T13:24:36.648Z,17.16
2023-04-16T13:27:25.606Z,17.25
2023-04-16T13:30:16.226Z,17.31
2023-04-16T13:33:05.463Z,17.33
2023-04-16T13:35:54.606Z,17.45
2023-04-16T13:38:44.585Z,17.61
2023-04-16T13:41:33.511Z,17.74
2023-04-16T13:44:22.238Z,17.86
2023-04-16T13:47:12.132Z,17.97
2023-04-16T13:50:00.985Z,17.90
2023-04-16T13:52:50.382Z,17.95
2023-04-16T13:55:39.141Z,18.03
2023-04-16T13:58:28.348Z,18.06
2023-04-16T14:01:17.415Z,18.06
2023-04-16T14:04:08.088Z,18.08
2023-04-16T14:06:57.483Z,18.13
2023-04-16T14:09:46.890Z,18.19
2023-04-16T14:12:37.608Z,18.22
2023-04-16T14:15:29.856Z,18.15
2023-04-16T14:18:18.901Z,18.05
2023-04-16T14:21:08.129Z,17.88
2023-04-16T14:23:57.353Z,17.66
2023-04-16T14:26:46.495Z,17.45
2023-04-16T14:29:36.453Z,17.24
2023-04-16T14:32:28.869Z,17.04
2023-04-16T14:35:18.193Z,16.78
2023-04-16T14:38:07.653Z,16.59
2023-04-16T14:40:57.454Z,16.44
2023-04-16T14:43:46.786Z,16.22
2023-04-16T14:46:36.237Z,16.01
2023-04-16T14:49:31.951Z,15.88
2023-04-16T14:52:21.044Z,15.76
2023-04-16T14:55:09.997Z,15.65
2023-04-16T14:57:59.945Z,15.54
2023-04-16T15:00:49.345Z,15.44
2023-04-16T15:03:39.037Z,15.36
2023-04-16T15:06:29.649Z,15.34
2023-04-16T15:09:29.221Z,15.31
2023-04-16T15:12:19.233Z,15.35
2023-04-16T15:15:10.094Z,15.41
2023-04-16T15:18:00.404Z,15.43
2023-04-16T15:20:49.596Z,15.37
2023-04-16T15:23:39.095Z,15.30
2023-04-16T15:26:27.976Z,15.20
2023-04-16T15:29:17.151Z,15.16
2023-04-16T15:32:09.032Z,15.08
2023-04-16T15:34:58.542Z,15.00
2023-04-16T15:37:48.279Z,14.90
2023-04-16T15:40:40.324Z,14.79
2023-04-16T15:43:30.225Z,14.71
2023-04-16T15:46:19.421Z,14.62
2023-04-16T15:49:08.774Z,14.54
2023-04-16T15:51:58.041Z,14.44
2023-04-16T15:54:48.092Z,14.36
2023-04-16T15:57:37.206Z,14.29
2023-04-16T16:00:27.584Z,14.22
2023-04-16T16:03:19.575Z,14.19
2023-04-16T16:06:09.686Z,14.16
2023-04-16T16:08:58.900Z,14.16
2023-04-16T16:11:48.127Z,14.16
2023-04-16T16:14:37.238Z,14.18
2023-04-16T16:17:27.081Z,14.14
2023-04-16T16:20:16.471Z,14.06
2023-04-16T16:23:05.995Z,14.01
2023-04-16T16:25:55.469Z,14.00
2023-04-16T16:28:44.848Z,13.98
2023-04-16T16:31:33.988Z,13.93
2023-04-16T16:34:23.065Z,13.86
2023-04-16T16:37:12.876Z,13.78
2023-04-16T16:40:02.850Z,13.72
2023-04-16T16:42:52.032Z,13.64
2023-04-16T16:45:41.896Z,13.58
2023-04-16T16:48:31.244Z,13.53
2023-04-16T16:51:20.696Z,13.47
2023-04-16T16:54:11.987Z,13.39
2023-04-16T16:57:02.454Z,13.33
2023-04-16T16:59:52.461Z,13.32
2023-04-16T17:02:42.025Z,13.28
2023-04-16T17:05:31.022Z,13.24
2023-04-16T17:08:22.686Z,13.22
2023-04-16T17:11:13.839Z,13.20
2023-04-16T17:14:03.027Z,13.19
2023-04-16T17:16:52.113Z,13.15
2023-04-16T17:19:41.617Z,13.12
2023-04-16T17:22:31.175Z,13.06
2023-04-16T17:25:20.658Z,12.99
2023-04-16T17:28:09.997Z,12.92
2023-04-16T17:30:59.541Z,12.85
2023-04-16T17:33:49.175Z,12.78
2023-04-16T17:36:37.984Z,12.71
2023-04-16T17:39:31.516Z,12.66
2023-04-16T17:42:21.182Z,12.59
2023-04-16T17:49:09.475Z,12.47
2023-04-16T17:51:58.507Z,12.41
2023-04-16T17:54:49.779Z,12.36
2023-04-16T17:57:46.738Z,12.31
2023-04-16T18:02:26.961Z,12.28
2023-04-16T18:04:48.831Z,12.24
2023-04-16T18:07:40.984Z,12.24
2023-04-16T18:10:32.835Z,12.26
2023-04-16T18:14:10.698Z,12.25
2023-04-16T18:17:42.212Z,12.27
2023-04-16T18:20:31.673Z,12.26
2023-04-16T18:23:30.360Z,12.28
2023-04-16T18:26:22.906Z,12.29
2023-04-16T18:29:18.087Z,12.31
2023-04-16T18:32:17.072Z,12.33
2023-04-16T18:35:06.971Z,12.32
2023-04-16T18:38:00.862Z,12.29
2023-04-16T18:40:51.812Z,12.24
2023-04-16T18:43:41.807Z,12.18
2023-04-16T18:46:32.972Z,12.14
2023-04-16T18:49:22.427Z,12.09
2023-04-16T18:52:17.434Z,12.04
2023-04-16T18:55:07.366Z,11.99
2023-04-16T18:57:59.588Z,11.94
2023-04-16T19:00:48.956Z,11.89
2023-04-16T19:03:38.359Z,11.82
2023-04-16T19:06:29.217Z,11.77
2023-04-16T19:09:20.156Z,11.71
2023-04-16T19:12:09.317Z,11.63
2023-04-16T19:14:58.434Z,11.60
2023-04-16T19:17:47.725Z,11.57
2023-04-16T19:20:37.014Z,11.53
2023-04-16T19:23:26.583Z,11.47
2023-04-16T19:26:15.282Z,11.38
2023-04-16T19:29:04.158Z,11.33
2023-04-16T19:36:54.538Z,11.27
2023-04-16T19:39:43.705Z,11.28
2023-04-16T19:42:32.751Z,11.28
2023-04-16T19:45:25.851Z,11.30
2023-04-16T19:48:40.136Z,11.30
2023-04-16T19:51:29.153Z,11.32
2023-04-16T19:54:18.669Z,11.32
2023-04-16T19:57:07.697Z,11.36
2023-04-16T20:00:07.845Z,11.37
2023-04-16T20:02:57.253Z,11.38
2023-04-16T20:06:40.391Z,11.35
2023-04-16T20:09:29.598Z,11.32
2023-04-16T20:12:21.428Z,11.27
2023-04-16T20:15:11.582Z,11.24
2023-04-16T20:18:00.606Z,11.21
2023-04-16T20:20:52.105Z,11.18
2023-04-16T20:23:41.770Z,11.15
2023-04-16T20:26:33.723Z,11.10
2023-04-16T20:29:23.026Z,11.03
2023-04-16T20:32:14.705Z,10.97
2023-04-16T20:35:05.320Z,10.91
2023-04-16T20:37:54.280Z,10.86
2023-04-16T20:40:44.776Z,10.78
2023-04-16T20:43:38.263Z,10.71
2023-04-16T20:46:30.345Z,10.64
2023-04-16T20:49:23.084Z,10.58
2023-04-16T20:52:12.392Z,10.53
2023-04-16T20:55:01.571Z,10.48
2023-04-16T20:57:50.960Z,10.44
2023-04-16T21:00:40.426Z,10.40
2023-04-16T21:03:29.608Z,10.37
2023-04-16T21:06:22.511Z,10.31
2023-04-16T21:09:12.006Z,10.26
2023-04-16T21:12:01.696Z,10.23
2023-04-16T21:14:50.982Z,10.22
2023-04-16T21:17:40.385Z,10.22
2023-04-16T21:20:30.550Z,10.22
2023-04-16T21:23:19.729Z,10.23
2023-04-16T21:26:09.596Z,10.24
2023-04-16T21:28:58.476Z,10.25
2023-04-16T21:31:47.967Z,10.25
2023-04-16T21:34:36.867Z,10.23
2023-04-16T21:37:25.858Z,10.21
2023-04-16T21:40:15.404Z,10.21
2023-04-16T21:43:04.713Z,10.19
2023-04-16T21:45:54.511Z,10.18
2023-04-16T21:48:43.531Z,10.17
2023-04-16T21:51:32.574Z,10.18
2023-04-16T21:54:23.004Z,10.18
2023-04-16T21:57:12.421Z,10.18
2023-04-16T22:00:01.473Z,10.14
2023-04-16T22:02:56.550Z,10.10
2023-04-16T22:05:45.957Z,10.08
2023-04-16T22:08:35.203Z,10.06
2023-04-16T22:11:24.390Z,10.02
2023-04-16T22:14:14.692Z,10.00
2023-04-16T22:17:03.588Z,10.00
2023-04-16T22:19:53.558Z,9.95
2023-04-16T22:22:42.506Z,9.91
2023-04-16T22:25:31.913Z,9.85
2023-04-16T22:28:21.371Z,9.73
2023-04-16T22:31:10.462Z,9.61
2023-04-16T22:34:02.159Z,9.52
2023-04-16T22:36:52.565Z,9.43
2023-04-16T22:39:42.262Z,9.36
2023-04-16T22:42:31.195Z,9.32
2023-04-16T22:45:20.336Z,9.29
2023-04-16T22:48:09.717Z,9.24
2023-04-16T22:50:58.865Z,9.18
2023-04-16T22:53:48.047Z,9.09
2023-04-16T22:56:37.175Z,9.05
2023-04-16T22:59:26.527Z,9.07
2023-04-16T23:02:15.813Z,9.07
2023-04-16T23:05:05.377Z,9.06
2023-04-16T23:07:54.362Z,9.05
2023-04-16T23:10:43.504Z,9.03
2023-04-16T23:13:32.762Z,9.03
2023-04-16T23:16:21.889Z,9.04
2023-04-16T23:19:14.889Z,9.05
2023-04-16T23:22:04.557Z,9.05
2023-04-16T23:24:53.772Z,9.03
2023-04-16T23:27:42.779Z,9.03
2023-04-16T23:30:32.305Z,9.01
2023-04-16T23:33:21.788Z,8.97
2023-04-16T23:36:11.519Z,8.96
2023-04-16T23:39:00.457Z,8.93
2023-04-16T23:41:49.680Z,8.88
2023-04-16T23:44:39.110Z,8.85
2023-04-16T23:47:28.358Z,8.80
2023-04-16T23:50:17.704Z,8.78
2023-04-16T23:53:06.645Z,8.78
2023-04-16T23:55:56.119Z,8.79
2023-04-16T23:58:45.301Z,8.78
